createdAt,value
2019-02-25T00:01:44.537Z,72.74
2019-02-25T00:06:43.833Z,73.31
2019-02-25T00:11:43.300Z,74.25
2019-02-25T00:16:43.513Z,72.65
2019-02-25T00:21:43.350Z,72.67
2019-02-25T00:26:42.442Z,74.63
2019-02-25T00:31:42.360Z,74.53
2019-02-25T00:36:42.566Z,75.43
2019-02-25T00:41:43.358Z,74.44
2019-02-25T00:46:43.544Z,73.81
2019-02-25T00:51:42.722Z,75.59
2019-02-25T00:56:42.331Z,75.59
2019-02-25T01:01:41.520Z,76.00
2019-02-25T01:06:41.373Z,76.43
2019-02-25T01:11:40.367Z,75.88
2019-02-25T01:16:40.375Z,75.37
2019-02-25T01:21:40.707Z,74.82
2019-02-25T01:26:40.331Z,75.70
2019-02-25T01:31:39.380Z,76.77
2019-02-25T01:36:40.417Z,77.06
2019-02-25T01:41:40.370Z,77.31
2019-02-25T01:46:39.414Z,75.98
2019-02-25T01:51:38.367Z,78.29
2019-02-25T01:56:37.373Z,78.65
2019-02-25T02:01:37.529Z,77.21
2019-02-25T02:06:36.365Z,79.16
2019-02-25T02:11:36.697Z,78.70
2019-02-25T02:16:35.429Z,77.76
2019-02-25T02:21:36.618Z,77.56
2019-02-25T02:26:36.588Z,77.77
2019-02-25T02:31:35.933Z,78.74
2019-02-25T02:36:36.576Z,77.33
2019-02-25T02:41:35.774Z,78.27
2019-02-25T02:46:36.608Z,78.84
2019-02-25T02:51:35.494Z,77.68
2019-02-25T02:56:35.366Z,78.21
2019-02-25T03:01:35.868Z,76.20
2019-02-25T03:06:35.800Z,77.99
2019-02-25T03:11:35.690Z,78.91
2019-02-25T03:16:34.423Z,78.38
2019-02-25T03:21:33.640Z,77.37
2019-02-25T03:26:34.469Z,80.78
2019-02-25T03:31:33.442Z,78.34
2019-02-25T03:36:33.404Z,76.95
2019-02-25T03:41:33.431Z,77.35
2019-02-25T03:46:32.606Z,78.77
2019-02-25T03:51:32.473Z,77.91
2019-02-25T03:56:31.697Z,79.26
2019-02-25T04:01:31.672Z,79.63
2019-02-25T04:06:30.673Z,79.43
2019-02-25T04:11:30.424Z,78.70
2019-02-25T04:16:30.535Z,79.53
2019-02-25T04:21:30.934Z,79.54
2019-02-25T04:26:29.923Z,80.03
2019-02-25T04:31:29.523Z,79.69
2019-02-25T04:36:29.469Z,79.03
2019-02-25T04:41:29.465Z,79.62
2019-02-25T04:46:28.676Z,78.30
2019-02-25T04:51:28.619Z,79.07
2019-02-25T04:56:28.451Z,78.94
2019-02-25T05:01:28.931Z,79.58
2019-02-25T05:06:28.507Z,79.52
2019-02-25T05:11:28.445Z,81.57
2019-02-25T05:16:29.703Z,80.62
2019-02-25T05:21:29.502Z,80.37
2019-02-25T05:26:29.571Z,80.46
2019-02-25T05:31:28.737Z,80.46
2019-02-25T05:36:28.539Z,80.52
2019-02-25T05:41:27.513Z,80.76
2019-02-25T05:46:28.536Z,80.11
2019-02-25T05:51:28.513Z,79.07
2019-02-25T05:56:27.565Z,78.50
2019-02-25T06:01:26.527Z,78.21
2019-02-25T06:06:26.578Z,79.01
2019-02-25T06:11:26.583Z,78.61
2019-02-25T06:16:26.660Z,80.05
2019-02-25T06:21:26.033Z,80.51
2019-02-25T06:26:26.576Z,81.08
2019-02-25T06:31:26.615Z,81.39
2019-02-25T06:36:26.673Z,81.88
2019-02-25T06:41:26.642Z,81.93
2019-02-25T06:46:27.726Z,81.22
2019-02-25T06:51:26.581Z,80.92
2019-02-25T06:56:26.563Z,81.25
2019-02-25T07:01:25.638Z,81.09
2019-02-25T07:06:25.592Z,81.18
2019-02-25T07:11:26.600Z,80.66
2019-02-25T07:16:25.605Z,81.70
2019-02-25T07:21:25.595Z,80.41
2019-02-25T07:26:24.721Z,81.84
2019-02-25T07:31:24.571Z,80.19
2019-02-25T07:36:24.607Z,80.48
2019-02-25T07:41:24.602Z,80.90
2019-02-25T07:46:23.616Z,79.13
2019-02-25T07:51:22.632Z,79.11
2019-02-25T07:56:22.628Z,79.41
2019-02-25T08:01:22.601Z,78.39
2019-02-25T08:06:22.137Z,78.29
2019-02-25T08:11:22.688Z,78.24
2019-02-25T08:16:21.971Z,77.63
2019-02-25T08:21:22.715Z,77.06
2019-02-25T08:26:22.865Z,76.08
2019-02-25T08:31:22.696Z,73.96
2019-02-25T08:36:21.671Z,73.70
2019-02-25T08:41:21.626Z,72.56
2019-02-25T08:46:20.741Z,72.72
2019-02-25T08:51:19.802Z,71.95
2019-02-25T08:56:20.659Z,69.66
2019-02-25T09:01:19.853Z,71.57
2019-02-25T09:06:19.661Z,68.92
2019-02-25T09:11:19.667Z,68.96
2019-02-25T09:16:19.647Z,67.14
2019-02-25T09:21:19.658Z,66.80
2019-02-25T09:26:18.612Z,65.19
2019-02-25T09:31:18.677Z,63.93
2019-02-25T09:36:18.683Z,63.64
2019-02-25T09:41:19.670Z,63.97
2019-02-25T09:46:20.677Z,61.73
2019-02-25T09:51:20.660Z,61.22
2019-02-25T09:56:19.670Z,61.72
2019-02-25T10:01:20.792Z,61.66
2019-02-25T10:06:21.659Z,61.24
2019-02-25T10:11:20.682Z,59.15
2019-02-25T10:16:19.770Z,59.81
2019-02-25T10:21:18.677Z,58.18
2019-02-25T10:26:18.672Z,57.85
2019-02-25T10:31:17.675Z,57.48
2019-02-25T10:36:18.654Z,56.70
2019-02-25T10:41:19.705Z,56.06
2019-02-25T10:46:17.773Z,53.50
2019-02-25T10:51:17.740Z,54.11
2019-02-25T10:56:17.359Z,50.67
2019-02-25T11:01:17.597Z,52.31
2019-02-25T11:06:14.658Z,51.10
2019-02-25T11:11:13.684Z,52.06
2019-02-25T11:16:14.007Z,48.07
2019-02-25T11:21:12.655Z,49.15
2019-02-25T11:26:11.828Z,46.31
2019-02-25T11:31:11.666Z,46.64
2019-02-25T11:36:12.591Z,47.55
2019-02-25T11:41:11.265Z,46.11
2019-02-25T11:46:10.771Z,46.24
2019-02-25T11:51:11.685Z,43.99
2019-02-25T11:56:10.711Z,43.27
2019-02-25T12:01:10.711Z,43.77
2019-02-25T12:06:09.745Z,44.14
2019-02-25T12:11:08.879Z,41.69
2019-02-25T12:16:08.728Z,42.95
2019-02-25T12:21:08.693Z,43.36
2019-02-25T12:26:08.686Z,44.03
2019-02-25T12:31:08.692Z,42.62
2019-02-25T12:36:08.721Z,44.76
2019-02-25T12:41:08.688Z,41.25
2019-02-25T12:46:07.647Z,42.46
2019-02-25T12:51:07.675Z,40.11
2019-02-25T12:56:07.677Z,41.77
2019-02-25T13:01:07.683Z,42.83
2019-02-25T13:06:06.814Z,43.27
2019-02-25T13:11:06.705Z,42.40
2019-02-25T13:16:05.867Z,42.42
2019-02-25T13:21:04.934Z,42.05
2019-02-25T13:26:07.431Z,41.82
2019-02-25T13:31:05.274Z,42.83
2019-02-25T13:36:02.986Z,40.47
2019-02-25T13:41:03.678Z,40.50
2019-02-25T13:46:03.689Z,42.19
2019-02-25T13:51:03.734Z,40.14
2019-02-25T13:56:03.668Z,40.87
2019-02-25T14:01:03.677Z,40.48
2019-02-25T14:06:02.819Z,42.52
2019-02-25T14:11:01.777Z,40.21
2019-02-25T14:16:01.728Z,41.01
2019-02-25T14:21:01.731Z,40.78
2019-02-25T14:26:02.777Z,40.47
2019-02-25T14:31:02.088Z,41.46
2019-02-25T14:36:02.732Z,42.09
2019-02-25T14:41:04.505Z,41.09
2019-02-25T14:46:01.705Z,40.21
2019-02-25T14:51:00.681Z,39.68
2019-02-25T14:56:03.828Z,39.38
2019-02-25T15:01:00.677Z,38.68
2019-02-25T15:06:00.661Z,38.02
2019-02-25T15:11:02.402Z,39.28
2019-02-25T15:16:00.672Z,37.59
2019-02-25T15:21:02.071Z,38.92
2019-02-25T15:26:05.234Z,37.87
2019-02-25T15:31:00.023Z,41.60
2019-02-25T15:36:01.307Z,41.20
2019-02-25T15:41:00.023Z,39.87
2019-02-25T15:45:58.113Z,41.91
2019-02-25T15:50:58.584Z,41.19
2019-02-25T15:55:59.196Z,41.13
2019-02-25T16:00:56.748Z,41.93
2019-02-25T16:05:59.811Z,42.01
2019-02-25T16:10:56.133Z,41.00
2019-02-25T16:15:54.952Z,41.43
2019-02-25T16:20:57.561Z,42.71
2019-02-25T16:25:56.905Z,42.82
2019-02-25T16:30:55.630Z,43.73
2019-02-25T16:35:54.913Z,44.63
2019-02-25T16:40:56.707Z,45.72
2019-02-25T16:45:54.660Z,43.99
2019-02-25T16:50:54.681Z,46.96
2019-02-25T16:55:54.748Z,47.25
2019-02-25T17:00:58.111Z,49.16
2019-02-25T17:05:53.712Z,47.91
2019-02-25T17:10:55.267Z,50.78
2019-02-25T17:15:53.738Z,51.68
2019-02-25T17:20:52.681Z,53.07
2019-02-25T17:25:52.755Z,55.36
2019-02-25T17:30:52.770Z,55.95
2019-02-25T17:35:54.243Z,56.90
2019-02-25T17:40:52.646Z,57.25
2019-02-25T17:45:51.699Z,58.44
2019-02-25T17:50:50.652Z,57.71
2019-02-25T17:55:51.193Z,59.96
2019-02-25T18:00:48.726Z,58.62
2019-02-25T18:05:48.110Z,59.85
2019-02-25T18:10:47.517Z,59.37
2019-02-25T18:15:47.699Z,60.08
2019-02-25T18:20:45.598Z,60.75
2019-02-25T18:25:45.649Z,61.27
2019-02-25T18:30:45.635Z,61.87
2019-02-25T18:35:45.709Z,62.24
2019-02-25T18:40:46.239Z,63.62
2019-02-25T18:45:44.796Z,64.52
2019-02-25T18:50:47.023Z,63.77
2019-02-25T18:55:43.650Z,63.56
2019-02-25T19:00:44.599Z,66.58
2019-02-25T19:05:41.759Z,65.78
2019-02-25T19:10:43.796Z,66.54
2019-02-25T19:15:41.748Z,66.64
2019-02-25T19:20:43.526Z,67.53
2019-02-25T19:25:41.724Z,66.40
2019-02-25T19:30:40.794Z,66.93
2019-02-25T19:35:40.863Z,66.83
2019-02-25T19:40:40.877Z,67.57
2019-02-25T19:45:42.617Z,67.98
2019-02-25T19:50:50.564Z,68.54
2019-02-25T19:55:40.765Z,69.37
2019-02-25T20:00:39.692Z,69.70
2019-02-25T20:05:43.395Z,69.46
2019-02-25T20:10:39.808Z,69.74
2019-02-25T20:15:41.777Z,71.60
2019-02-25T20:20:41.342Z,72.85
2019-02-25T20:25:42.432Z,72.89
2019-02-25T20:30:39.796Z,72.19
2019-02-25T20:35:39.939Z,72.59
2019-02-25T20:40:40.688Z,73.71
2019-02-25T20:45:39.694Z,75.41
2019-02-25T20:50:40.702Z,74.70
2019-02-25T20:55:39.964Z,74.95
2019-02-25T21:00:39.805Z,75.09
2019-02-25T21:05:38.674Z,75.25
2019-02-25T21:10:39.185Z,75.09
2019-02-25T21:15:40.255Z,75.50
2019-02-25T21:20:38.028Z,75.81
2019-02-25T21:25:38.517Z,75.74
2019-02-25T21:30:39.128Z,76.34
2019-02-25T21:35:37.066Z,76.07
2019-02-25T21:40:34.063Z,75.88
2019-02-25T21:45:32.925Z,76.30
2019-02-25T21:50:35.889Z,76.04
2019-02-25T21:55:34.743Z,76.55
2019-02-25T22:00:35.777Z,76.50
2019-02-25T22:05:32.656Z,77.15
2019-02-25T22:10:34.908Z,77.18
2019-02-25T22:15:34.008Z,77.35
2019-02-25T22:20:35.598Z,78.16
2019-02-25T22:25:31.499Z,78.65
2019-02-25T22:30:30.665Z,78.92
2019-02-25T22:35:33.120Z,78.77
2019-02-25T22:40:30.516Z,78.99
2019-02-25T22:45:31.471Z,79.42
2019-02-25T22:50:31.145Z,79.09
2019-02-25T22:55:30.491Z,79.44
2019-02-25T23:00:30.430Z,80.72
2019-02-25T23:05:30.498Z,81.41
2019-02-25T23:10:31.559Z,80.26
2019-02-25T23:15:31.533Z,80.32
2019-02-25T23:20:33.901Z,81.54
2019-02-25T23:25:31.495Z,82.51
2019-02-25T23:30:30.449Z,81.31
2019-02-25T23:35:29.462Z,81.65
2019-02-25T23:40:33.331Z,81.69
2019-02-25T23:45:29.529Z,81.17
2019-02-25T23:50:31.800Z,81.07
2019-02-25T23:55:29.720Z,80.44
